Terminal Aerodrome Forecast
Issued by NWS

Home | Current Version | Previous Version | Graphics & Text | Print | Product List | Glossary On
Versions: 1 2 3 4 5 6 7 8 9 10 11 12 13 14 15 16 17 18 19
000
FTUS43 KGRB 301100
TAFCWA
TAF
KCWA 301128Z 3012/3112 VRB03KT P6SM VCSH SCT005 OVC025
      TEMPO 3012/3015 5SM -RA BR BKN005
     FM301500 28006KT P6SM VCSH SCT008 OVC025
      TEMPO 3015/3019 5SM -RA BR BKN008
     FM301900 31008KT P6SM BKN012 BKN035
     FM302300 04003KT P6SM SCT015 BKN050
     FM310500 VRB03KT 3SM BR FEW009 FEW050
      TEMPO 3108/3112 1/2SM FG BKN005=

USA.gov is the U.S. government's official web portal to all federal, state and local government web resources and services.